createdAt,value
2022-09-05T00:01:41.234Z,16.80
2022-09-05T00:04:24.425Z,16.70
2022-09-05T00:07:31.163Z,16.70
2022-09-05T00:10:14.935Z,16.70
2022-09-05T00:12:42.623Z,16.70
2022-09-05T00:15:19.968Z,16.70
2022-09-05T00:19:35.464Z,16.60
2022-09-05T00:24:32.280Z,16.60
2022-09-05T00:24:36.939Z,16.60
2022-09-05T00:26:28.597Z,16.60
2022-09-05T00:29:02.972Z,16.50
2022-09-05T00:31:55.520Z,16.50
2022-09-05T00:34:26.638Z,16.50
2022-09-05T00:37:08.869Z,16.50
2022-09-05T00:39:40.182Z,16.50
2022-09-05T00:42:17.338Z,16.50
2022-09-05T00:44:50.334Z,16.40
2022-09-05T00:47:30.201Z,16.40
2022-09-05T00:50:00.135Z,16.40
2022-09-05T00:52:37.104Z,16.40
2022-09-05T00:55:18.469Z,16.40
2022-09-05T00:57:45.011Z,16.30
2022-09-05T01:00:24.649Z,16.30
2022-09-05T01:03:10.542Z,16.30
2022-09-05T01:05:54.564Z,16.20
2022-09-05T01:08:30.319Z,16.10
2022-09-05T01:11:04.859Z,16.10
2022-09-05T01:13:50.089Z,16.10
2022-09-05T01:16:19.697Z,16.00
2022-09-05T01:19:22.082Z,16.00
2022-09-05T01:21:52.956Z,15.90
2022-09-05T01:24:27.804Z,15.90
2022-09-05T01:27:13.478Z,15.90
2022-09-05T01:30:00.321Z,15.80
2022-09-05T01:32:39.037Z,15.80
2022-09-05T01:35:25.712Z,15.80
2022-09-05T01:38:12.123Z,15.80
2022-09-05T01:40:41.575Z,15.70
2022-09-05T01:43:10.573Z,15.70
2022-09-05T01:45:50.913Z,15.70
2022-09-05T01:48:23.690Z,15.70
2022-09-05T01:51:29.137Z,15.70
2022-09-05T01:54:26.702Z,15.70
2022-09-05T01:57:07.508Z,15.60
2022-09-05T01:59:39.776Z,15.60
2022-09-05T02:02:31.671Z,15.60
2022-09-05T02:05:01.078Z,15.60
2022-09-05T02:07:43.590Z,15.50
2022-09-05T02:10:29.089Z,15.50
2022-09-05T02:13:11.399Z,15.50
2022-09-05T02:15:59.103Z,15.40
2022-09-05T02:18:29.062Z,15.40
2022-09-05T02:21:02.552Z,15.40
2022-09-05T02:23:42.527Z,15.40
2022-09-05T02:26:23.255Z,15.40
2022-09-05T02:28:55.661Z,15.30
2022-09-05T02:31:25.102Z,15.30
2022-09-05T02:34:00.131Z,15.30
2022-09-05T02:36:47.856Z,15.30
2022-09-05T02:45:00.139Z,15.30
2022-09-05T02:45:19.649Z,15.30
2022-09-05T02:45:26.841Z,15.30
2022-09-05T02:48:16.263Z,15.30
2022-09-05T02:57:23.037Z,15.30
2022-09-05T02:57:33.269Z,15.20
2022-09-05T02:57:40.447Z,15.20
2022-09-05T02:59:35.843Z,15.20
2022-09-05T03:02:08.434Z,15.10
2022-09-05T03:04:52.520Z,15.10
2022-09-05T03:07:42.873Z,15.10
2022-09-05T03:10:15.420Z,15.00
2022-09-05T03:12:54.301Z,15.00
2022-09-05T03:15:39.501Z,15.00
2022-09-05T03:18:20.792Z,14.90
2022-09-05T03:21:08.927Z,14.90
2022-09-05T03:23:45.389Z,14.90
2022-09-05T03:26:36.777Z,14.90
2022-09-05T03:29:22.011Z,14.90
2022-09-05T03:31:54.477Z,14.90
2022-09-05T03:34:39.950Z,14.90
2022-09-05T03:37:08.298Z,14.90
2022-09-05T03:39:34.908Z,14.80
2022-09-05T03:42:01.655Z,14.80
2022-09-05T03:44:47.218Z,14.90
2022-09-05T03:47:36.294Z,14.80
2022-09-05T03:53:20.363Z,14.80
2022-09-05T03:57:10.415Z,14.80
2022-09-05T03:57:24.169Z,14.80
2022-09-05T03:59:30.056Z,14.80
2022-09-05T04:04:31.770Z,14.70
2022-09-05T04:08:13.521Z,14.80
2022-09-05T04:08:31.175Z,14.70
2022-09-05T04:10:41.818Z,14.70
2022-09-05T04:13:14.627Z,14.70
2022-09-05T04:15:46.259Z,14.70
2022-09-05T04:18:18.688Z,14.60
2022-09-05T04:21:01.737Z,14.70
2022-09-05T04:23:37.210Z,14.70
2022-09-05T04:26:13.927Z,14.70
2022-09-05T04:28:44.120Z,14.60
2022-09-05T04:31:26.345Z,14.60
2022-09-05T04:34:02.161Z,14.60
2022-09-05T04:36:36.243Z,14.60
2022-09-05T04:39:08.849Z,14.60
2022-09-05T04:41:40.308Z,14.60
2022-09-05T04:44:17.483Z,14.60
2022-09-05T04:46:49.158Z,14.60
2022-09-05T04:49:18.136Z,14.60
2022-09-05T04:52:06.267Z,14.60
2022-09-05T04:54:35.941Z,14.60
2022-09-05T04:57:14.140Z,14.60
2022-09-05T05:05:58.189Z,14.60
2022-09-05T05:06:13.730Z,14.70
2022-09-05T05:06:18.348Z,14.60
2022-09-05T05:08:41.060Z,14.70
2022-09-05T05:16:18.637Z,14.70
2022-09-05T05:18:14.078Z,14.70
2022-09-05T05:18:15.786Z,14.70
2022-09-05T05:20:42.608Z,14.70
2022-09-05T05:23:10.456Z,14.80
2022-09-05T05:25:43.083Z,14.80
2022-09-05T05:28:25.022Z,14.90
2022-09-05T05:31:08.283Z,15.10
2022-09-05T05:33:35.964Z,15.40
2022-09-05T05:36:04.405Z,15.70
2022-09-05T05:38:42.182Z,15.90
2022-09-05T05:41:31.743Z,16.30
2022-09-05T05:43:59.096Z,16.60
2022-09-05T05:46:30.513Z,16.90
2022-09-05T05:49:04.254Z,17.20
2022-09-05T05:52:00.970Z,17.40
2022-09-05T05:54:33.135Z,17.60
2022-09-05T05:57:17.986Z,17.80
2022-09-05T05:59:56.322Z,18.10
2022-09-05T06:02:34.213Z,18.30
2022-09-05T06:05:09.708Z,18.50
2022-09-05T06:09:28.330Z,18.60
2022-09-05T06:14:49.766Z,18.70
2022-09-05T06:15:02.948Z,19.00
2022-09-05T06:16:57.376Z,19.40
2022-09-05T06:20:20.882Z,19.60
2022-09-05T06:22:33.822Z,19.80
2022-09-05T06:25:18.772Z,20.20
2022-09-05T06:28:17.445Z,20.50
2022-09-05T06:30:37.646Z,20.80
2022-09-05T06:33:09.398Z,21.30
2022-09-05T06:36:11.731Z,21.50
2022-09-05T06:38:53.803Z,21.70
2022-09-05T06:41:32.362Z,22.00
2022-09-05T06:44:12.682Z,22.30
2022-09-05T06:46:55.465Z,22.40
2022-09-05T06:49:38.138Z,22.60
2022-09-05T06:52:29.423Z,23.00
2022-09-05T06:55:15.340Z,23.50
2022-09-05T06:58:00.792Z,24.00
2022-09-05T07:00:36.817Z,24.50
2022-09-05T07:03:09.695Z,25.20
2022-09-05T07:05:45.086Z,25.30
2022-09-05T07:08:35.011Z,25.00
2022-09-05T07:11:16.608Z,24.60
2022-09-05T07:13:49.793Z,24.10
2022-09-05T07:16:29.790Z,23.90
2022-09-05T07:19:12.255Z,23.80
2022-09-05T07:21:41.809Z,23.60
2022-09-05T07:24:29.728Z,23.50
2022-09-05T07:27:10.930Z,23.60
2022-09-05T07:29:53.221Z,23.50
2022-09-05T07:32:29.837Z,23.50
2022-09-05T07:34:58.265Z,23.40
2022-09-05T07:37:51.202Z,23.50
2022-09-05T07:40:26.340Z,23.60
2022-09-05T07:43:08.798Z,23.60
2022-09-05T07:45:37.778Z,23.80
2022-09-05T07:48:11.884Z,23.90
2022-09-05T07:52:23.508Z,24.10
2022-09-05T07:56:52.288Z,24.30
2022-09-05T07:56:59.132Z,24.40
2022-09-05T07:59:29.078Z,24.40
2022-09-05T08:01:56.330Z,24.30
2022-09-05T08:04:30.156Z,24.40
2022-09-05T08:07:46.139Z,24.20
2022-09-05T08:10:08.723Z,24.20
2022-09-05T08:13:22.952Z,24.20
2022-09-05T08:15:26.078Z,24.40
2022-09-05T08:18:24.058Z,24.50
2022-09-05T08:20:53.101Z,24.40
2022-09-05T08:23:22.722Z,24.40
2022-09-05T08:25:59.017Z,24.60
2022-09-05T08:28:38.909Z,24.90
2022-09-05T08:31:14.833Z,25.20
2022-09-05T08:33:43.397Z,25.20
2022-09-05T08:36:30.326Z,25.20
2022-09-05T08:38:59.393Z,25.50
2022-09-05T08:41:49.452Z,25.70
2022-09-05T08:46:35.794Z,26.10
2022-09-05T08:47:18.388Z,26.40
2022-09-05T08:49:58.843Z,26.60
2022-09-05T08:52:52.143Z,26.90
2022-09-05T08:55:36.648Z,27.20
2022-09-05T08:58:24.997Z,27.40
2022-09-05T09:01:00.187Z,27.60
2022-09-05T09:03:41.684Z,27.80
2022-09-05T09:06:27.899Z,27.80
2022-09-05T09:09:09.851Z,27.90
2022-09-05T09:11:48.753Z,28.00
2022-09-05T09:14:35.341Z,28.00
2022-09-05T09:17:20.665Z,27.70
2022-09-05T09:19:54.816Z,27.80
2022-09-05T09:22:26.969Z,28.10
2022-09-05T09:25:15.886Z,28.30
2022-09-05T09:28:42.059Z,28.40
2022-09-05T09:30:39.899Z,28.50
2022-09-05T09:33:07.545Z,28.60
2022-09-05T09:35:44.374Z,28.90
2022-09-05T09:38:20.057Z,29.10
2022-09-05T09:41:00.787Z,29.30
2022-09-05T09:43:31.778Z,29.40
2022-09-05T09:46:18.131Z,29.40
2022-09-05T09:48:52.861Z,29.10
2022-09-05T09:51:41.413Z,29.20
2022-09-05T09:54:11.950Z,29.00
2022-09-05T09:56:41.880Z,29.30
2022-09-05T09:59:23.506Z,29.40
2022-09-05T10:04:27.538Z,29.60
2022-09-05T10:10:36.257Z,29.60
2022-09-05T10:10:56.273Z,29.40
2022-09-05T10:14:29.084Z,29.90
2022-09-05T10:17:22.786Z,30.00
2022-09-05T10:20:10.431Z,29.90
2022-09-05T10:22:56.306Z,30.00
2022-09-05T10:25:41.422Z,30.40
2022-09-05T10:28:09.028Z,30.50
2022-09-05T10:33:05.313Z,30.90
2022-09-05T10:35:18.208Z,31.00
2022-09-05T10:36:40.337Z,31.10
2022-09-05T10:39:16.325Z,30.70
2022-09-05T10:41:53.570Z,30.90
2022-09-05T10:44:29.428Z,31.20
2022-09-05T10:47:09.891Z,31.50
2022-09-05T10:49:42.776Z,31.80
2022-09-05T10:52:18.108Z,31.90
2022-09-05T10:55:15.124Z,32.10
2022-09-05T10:57:57.464Z,32.50
2022-09-05T11:02:20.101Z,32.30
2022-09-05T11:03:23.007Z,32.40
2022-09-05T11:05:55.799Z,32.50
2022-09-05T11:08:44.954Z,32.30
2022-09-05T11:11:28.442Z,32.40
2022-09-05T11:14:03.847Z,32.50
2022-09-05T11:16:38.942Z,32.60
2022-09-05T11:19:05.573Z,32.80
2022-09-05T11:22:12.150Z,32.80
2022-09-05T11:24:50.927Z,32.70
2022-09-05T11:27:35.186Z,32.50
2022-09-05T11:30:05.460Z,32.70
2022-09-05T11:39:46.310Z,32.90
2022-09-05T11:40:00.057Z,32.70
2022-09-05T11:40:08.725Z,33.30
2022-09-05T11:41:28.898Z,33.30
2022-09-05T11:44:25.030Z,33.40
2022-09-05T11:46:53.002Z,32.90
2022-09-05T11:49:42.336Z,32.90
2022-09-05T11:52:27.422Z,33.10
2022-09-05T11:54:57.269Z,33.10
2022-09-05T11:57:32.127Z,33.20
2022-09-05T12:00:28.201Z,33.00
2022-09-05T12:02:53.968Z,33.00
2022-09-05T12:05:48.335Z,33.10
2022-09-05T12:08:21.795Z,33.00
2022-09-05T12:11:22.277Z,33.10
2022-09-05T12:13:55.421Z,33.00
2022-09-05T12:16:28.483Z,33.00
2022-09-05T12:19:19.181Z,32.80
2022-09-05T12:22:02.503Z,32.80
2022-09-05T12:25:26.346Z,32.50
2022-09-05T12:27:46.635Z,32.60
2022-09-05T12:30:28.805Z,32.80
2022-09-05T12:36:05.426Z,32.70
2022-09-05T12:40:40.210Z,32.50
2022-09-05T12:40:55.678Z,32.70
2022-09-05T12:42:20.005Z,32.70
2022-09-05T12:44:51.099Z,33.00
2022-09-05T12:47:21.183Z,33.40
2022-09-05T12:50:02.861Z,33.40
2022-09-05T12:52:32.358Z,32.90
2022-09-05T12:55:04.432Z,32.70
2022-09-05T13:01:39.309Z,33.00
2022-09-05T13:06:26.761Z,33.20
2022-09-05T13:09:00.303Z,33.10
2022-09-05T13:14:53.767Z,33.40
2022-09-05T13:15:03.213Z,33.40
2022-09-05T13:17:31.043Z,33.30
2022-09-05T13:20:00.470Z,33.40
2022-09-05T13:22:28.147Z,33.30
2022-09-05T13:25:06.414Z,33.30
2022-09-05T13:27:34.484Z,33.40
2022-09-05T13:32:50.033Z,33.60
2022-09-05T13:37:58.216Z,33.40
2022-09-05T13:38:08.370Z,33.50
2022-09-05T13:39:06.507Z,33.50
2022-09-05T13:41:36.207Z,33.70
2022-09-05T13:44:26.228Z,33.70
2022-09-05T13:47:28.424Z,33.80
2022-09-05T13:50:08.665Z,33.90
2022-09-05T13:52:51.586Z,33.90
2022-09-05T13:55:23.046Z,33.70
2022-09-05T13:57:53.020Z,33.70
2022-09-05T14:00:28.219Z,33.90
2022-09-05T14:03:36.065Z,33.90
2022-09-05T14:06:01.174Z,34.00
2022-09-05T14:08:36.881Z,34.00
2022-09-05T14:11:12.683Z,34.00
2022-09-05T14:13:58.700Z,34.10
2022-09-05T14:16:26.816Z,33.90
2022-09-05T14:19:12.777Z,34.40
2022-09-05T14:21:40.816Z,34.60
2022-09-05T14:24:10.177Z,34.80
2022-09-05T14:26:44.896Z,34.80
2022-09-05T14:29:27.730Z,34.60
2022-09-05T14:37:37.044Z,34.30
2022-09-05T14:37:50.671Z,34.20
2022-09-05T14:38:13.351Z,33.80
2022-09-05T14:41:00.258Z,33.50
2022-09-05T14:43:30.783Z,33.20
2022-09-05T14:46:10.339Z,33.00
2022-09-05T14:48:55.663Z,32.90
2022-09-05T14:51:34.374Z,32.90
2022-09-05T14:54:04.215Z,32.60
2022-09-05T15:01:34.462Z,32.50
2022-09-05T15:02:45.490Z,32.20
2022-09-05T15:02:58.670Z,32.20
2022-09-05T15:05:11.810Z,32.20
2022-09-05T15:07:39.969Z,32.20
2022-09-05T15:12:16.597Z,32.10
2022-09-05T15:13:02.361Z,32.00
2022-09-05T15:15:38.420Z,31.90
2022-09-05T15:18:10.121Z,31.80
2022-09-05T15:20:40.989Z,31.70
2022-09-05T15:23:17.017Z,31.60
2022-09-05T15:25:45.835Z,31.50
2022-09-05T15:28:30.494Z,31.40
2022-09-05T15:30:58.484Z,31.20
2022-09-05T15:33:28.292Z,31.00
2022-09-05T15:35:55.725Z,30.80
2022-09-05T15:38:54.386Z,30.60
2022-09-05T15:41:28.911Z,30.50
2022-09-05T15:44:09.925Z,30.40
2022-09-05T15:46:49.103Z,30.30
2022-09-05T15:49:34.328Z,30.30
2022-09-05T15:52:02.991Z,30.10
2022-09-05T15:54:39.195Z,30.00
2022-09-05T15:57:08.860Z,30.00
2022-09-05T15:59:47.083Z,30.00
2022-09-05T16:02:17.212Z,30.00
2022-09-05T16:08:08.218Z,29.90
2022-09-05T16:10:45.523Z,29.80
2022-09-05T16:10:58.998Z,29.80
2022-09-05T16:13:17.191Z,29.60
2022-09-05T16:20:43.357Z,29.50
2022-09-05T16:23:13.819Z,29.30
2022-09-05T16:23:25.480Z,29.20
2022-09-05T16:24:10.735Z,29.10
2022-09-05T16:26:42.066Z,29.10
2022-09-05T16:29:23.893Z,29.00
2022-09-05T16:32:02.150Z,29.10
2022-09-05T16:35:07.205Z,29.00
2022-09-05T16:37:41.475Z,28.80
2022-09-05T16:40:08.269Z,28.70
2022-09-05T16:42:47.001Z,28.50
2022-09-05T16:45:32.434Z,28.40
2022-09-05T16:48:14.378Z,28.30
2022-09-05T16:51:11.714Z,28.20
2022-09-05T16:53:59.001Z,28.10
2022-09-05T16:56:34.994Z,28.00
2022-09-05T16:59:03.329Z,27.90
2022-09-05T17:01:38.374Z,27.80
2022-09-05T17:04:23.548Z,27.80
2022-09-05T17:06:54.161Z,27.70
2022-09-05T17:09:23.366Z,27.60
2022-09-05T17:12:01.487Z,27.50
2022-09-05T17:14:36.035Z,27.40
2022-09-05T17:17:38.873Z,27.30
2022-09-05T17:20:08.051Z,27.30
2022-09-05T17:25:41.384Z,27.30
2022-09-05T17:29:23.804Z,27.00
2022-09-05T17:29:49.093Z,27.10
2022-09-05T17:31:53.659Z,26.90
2022-09-05T17:34:27.417Z,26.80
2022-09-05T17:37:11.126Z,26.70
2022-09-05T17:40:02.284Z,26.70
2022-09-05T17:42:38.221Z,26.50
2022-09-05T17:45:04.930Z,26.30
2022-09-05T17:47:44.418Z,26.20
2022-09-05T17:50:16.184Z,26.00
2022-09-05T17:53:26.941Z,25.90
2022-09-05T17:55:52.564Z,25.70
2022-09-05T17:58:26.875Z,25.60
2022-09-05T18:01:16.047Z,25.50
2022-09-05T18:03:44.900Z,25.30
2022-09-05T18:06:14.287Z,25.30
2022-09-05T18:08:47.935Z,25.20
2022-09-05T18:11:17.994Z,25.00
2022-09-05T18:13:54.110Z,24.90
2022-09-05T18:19:36.401Z,24.70
2022-09-05T18:22:08.665Z,24.60
2022-09-05T18:24:37.825Z,24.50
2022-09-05T18:30:10.856Z,24.30
2022-09-05T18:32:39.076Z,24.30
2022-09-05T18:35:11.283Z,24.10
2022-09-05T18:37:37.899Z,24.10
2022-09-05T18:40:06.296Z,23.90
2022-09-05T18:42:36.327Z,23.90
2022-09-05T18:45:15.113Z,23.80
2022-09-05T18:47:53.305Z,23.60
2022-09-05T18:50:28.162Z,23.50
2022-09-05T18:53:08.871Z,23.40
2022-09-05T18:56:09.988Z,23.30
2022-09-05T18:58:28.681Z,23.10
2022-09-05T19:00:55.819Z,23.10
2022-09-05T19:03:29.594Z,23.00
2022-09-05T19:06:37.111Z,22.80
2022-09-05T19:08:48.897Z,22.80
2022-09-05T19:11:27.856Z,22.60
2022-09-05T19:14:02.759Z,22.60
2022-09-05T19:16:47.733Z,22.60
2022-09-05T19:19:16.050Z,22.40
2022-09-05T19:21:56.196Z,22.40
2022-09-05T19:24:45.638Z,22.30
2022-09-05T19:27:34.200Z,22.10
2022-09-05T19:36:57.702Z,22.00
2022-09-05T19:36:59.990Z,22.00
2022-09-05T19:37:13.244Z,22.10
2022-09-05T19:38:21.734Z,21.80
2022-09-05T19:47:34.370Z,21.80
2022-09-05T19:47:43.031Z,21.70
2022-09-05T19:47:48.316Z,21.70
2022-09-05T19:49:09.858Z,21.60
2022-09-05T19:51:37.124Z,21.50
2022-09-05T19:54:05.854Z,21.40
2022-09-05T19:56:40.840Z,21.30
2022-09-05T19:59:16.608Z,21.20
2022-09-05T20:01:44.067Z,21.20
2022-09-05T20:04:16.294Z,21.10
2022-09-05T20:06:42.849Z,21.00
2022-09-05T20:09:20.392Z,21.00
2022-09-05T20:11:51.355Z,20.90
2022-09-05T20:14:31.340Z,20.80
2022-09-05T20:17:17.904Z,20.80
2022-09-05T20:19:45.036Z,20.80
2022-09-05T20:22:47.518Z,20.70
2022-09-05T20:25:34.590Z,20.70
2022-09-05T20:28:00.571Z,20.60
2022-09-05T20:30:40.153Z,20.50
2022-09-05T20:33:13.802Z,20.40
2022-09-05T20:38:23.904Z,20.40
2022-09-05T20:43:11.175Z,20.30
2022-09-05T20:43:32.631Z,20.30
2022-09-05T20:44:19.261Z,20.30
2022-09-05T20:50:44.378Z,20.30
2022-09-05T20:54:09.848Z,20.20
2022-09-05T20:54:28.125Z,20.20
2022-09-05T20:55:39.056Z,20.20
2022-09-05T20:58:09.537Z,20.20
2022-09-05T21:00:37.815Z,20.20
2022-09-05T21:03:08.389Z,20.20
2022-09-05T21:05:37.846Z,20.20
2022-09-05T21:08:19.559Z,20.20
2022-09-05T21:10:56.602Z,20.10
2022-09-05T21:13:25.140Z,20.10
2022-09-05T21:15:53.613Z,20.00
2022-09-05T21:18:22.401Z,19.90
2022-09-05T21:20:53.058Z,19.80
2022-09-05T21:23:21.039Z,19.70
2022-09-05T21:25:55.580Z,19.80
2022-09-05T21:28:23.632Z,19.70
2022-09-05T21:31:06.037Z,19.60
2022-09-05T21:33:45.581Z,19.60
2022-09-05T21:36:14.636Z,19.60
2022-09-05T21:38:42.591Z,19.60
2022-09-05T21:41:09.585Z,19.50
2022-09-05T21:47:38.805Z,19.40
2022-09-05T21:47:42.648Z,19.30
2022-09-05T21:49:19.229Z,19.30
2022-09-05T21:51:50.419Z,19.30
2022-09-05T21:58:22.153Z,19.20
2022-09-05T21:59:32.700Z,19.10
2022-09-05T21:59:58.678Z,19.10
2022-09-05T22:02:34.445Z,19.10
2022-09-05T22:05:03.278Z,19.10
2022-09-05T22:07:32.855Z,19.00
2022-09-05T22:10:00.192Z,19.00
2022-09-05T22:12:31.438Z,19.00
2022-09-05T22:15:26.271Z,19.00
2022-09-05T22:17:46.572Z,18.90
2022-09-05T22:20:15.708Z,18.90
2022-09-05T22:22:42.555Z,18.90
2022-09-05T22:25:14.325Z,18.80
2022-09-05T22:27:43.752Z,18.80
2022-09-05T22:30:11.910Z,18.70
2022-09-05T22:32:38.470Z,18.60
2022-09-05T22:35:27.624Z,18.60
2022-09-05T22:37:59.695Z,18.60
2022-09-05T22:40:27.651Z,18.50
2022-09-05T22:42:58.341Z,18.50
2022-09-05T22:45:25.115Z,18.50
2022-09-05T22:47:51.941Z,18.50
2022-09-05T22:50:18.555Z,18.50
2022-09-05T22:52:45.115Z,18.40
2022-09-05T22:55:11.673Z,18.30
2022-09-05T22:57:38.825Z,18.30
2022-09-05T23:00:08.120Z,18.30
2022-09-05T23:02:35.168Z,18.20
2022-09-05T23:05:02.230Z,18.20
2022-09-05T23:07:29.583Z,18.20
2022-09-05T23:09:56.146Z,18.20
2022-09-05T23:12:22.715Z,18.10
2022-09-05T23:14:49.297Z,18.10
2022-09-05T23:17:15.886Z,18.10
2022-09-05T23:19:42.463Z,18.00
2022-09-05T23:22:09.014Z,18.10
2022-09-05T23:24:35.622Z,18.10
2022-09-05T23:27:02.232Z,18.00
2022-09-05T23:29:28.811Z,18.00
2022-09-05T23:31:56.279Z,18.00
2022-09-05T23:34:22.852Z,17.90
2022-09-05T23:36:49.429Z,17.90
2022-09-05T23:39:15.989Z,17.90
2022-09-05T23:41:42.556Z,17.90
2022-09-05T23:44:09.128Z,17.90
2022-09-05T23:46:37.322Z,17.80
2022-09-05T23:49:03.933Z,17.80
2022-09-05T23:51:30.516Z,17.80
2022-09-05T23:53:57.094Z,17.70
2022-09-05T23:56:23.703Z,17.70
2022-09-05T23:58:50.309Z,17.70
